Ozona, TX

12:42 AM CDT on September 25, 2016 (GMT -0500)
Ozona Municipal | | Change Station
Active Advisory: Flash Flood Watch

Elev 2382 ft 30.74 °N, 101.20 °W | Updated 27 minutes ago

Clear
Clear
70 °F
Feels Like 70 °F
N
6
Wind Variable Wind from West

Today
High -- | Low -- °F
--% Chance of Precip.
Yesterday
High -- | Low -- °F
Precip. -- in
Pressure 30.03 in
Visibility 10.0 miles
Clouds Clear
Dew Point 64 °F
Humidity 83%
Rainfall 0.00 in
Snow Depth Not available.
7:35 AM 7:36 PM
Waning Crescent, 31% visible
METAR KOZA 250515Z AUTO 28005KT 10SM CLR 21/18 A3003 RMK AO2 LTG DSNT N THRU E
Pressure 30.03 in
Visibility 10.0 miles
Clouds Clear
Dew Point 64 °F
Humidity 83%
Rainfall 0.00 in
Snow Depth Not available.
7:35 AM 7:36 PM
Waning Crescent, 31% visible
METAR KOZA 250515Z AUTO 28005KT 10SM CLR 21/18 A3003 RMK AO2 LTG DSNT N THRU E

10-Day Weather Forecast

Almanac

Astronomy

Sep. 25, 2016 Rise Set
Actual Time
Civil Twilight
Nautical Twilight
Astronomical Twilight
Moon
Length of Visible Light
Length of Day
Tomorrow will be .
, % of the Moon is Illuminated

Today's Extremes

State Highs State Lows

Community

WunderPhotos

Upload Photos

1,941,554 photos uploaded!

WunderBlog® & News

Nearby

Air Quality

  Air Quality AQ Index Pollutant
Not available.

Snow Depth

Station Depth Elevation

Earthquake Activity

City Distance Mag. Time & Date
Minimum magnitude displayed is 2.5.

Coastal Water Temperatures

Place Temperature

Stations

Nearby Weather Stations

Station Location Temp. Windchill Dew Point Humidity Wind Precip. Elev Updated Type
                   

Watches & Warnings

Flash Flood Watch
Issued: 3:00 PM CDT Sep. 24, 2016 – National Weather Service

... Flash Flood Watch remains in effect from 7 PM CDT this evening
through Monday morning...

The Flash Flood Watch continues for

* a portion of west central Texas... including the following
areas... Coke... Crockett... Fisher... Irion... Nolan...
Schleicher... Sterling... Sutton and Tom Green.

* From 7 PM CDT this evening through Monday morning

* rainfall amounts totaling 3 to 5 inches with locally higher
amounts possible.

* Heavy rainfall will lead to saturated soils and runoff that
will likely result in flooding of poor drainage and low lying
areas creeks... streams and ... street flooding.

Precautionary/preparedness actions...

A Flash Flood Watch means that conditions may develop that lead
to flash flooding. Flash flooding is a very dangerous situation.

You should monitor later forecasts and be prepared to take action
should flash flood warnings be issued.